sensor_id;sensor_type;location;lat;lon;timestamp;P1;durP1;ratioP1;P2;durP2;ratioP2
14736;SDS011;7459;53.590;10.062;2022-09-13T00:00:42;5.75;;;3.10;;
14736;SDS011;7459;53.590;10.062;2022-09-13T00:03:09;6.00;;;3.73;;
14736;SDS011;7459;53.590;10.062;2022-09-13T00:05:36;5.20;;;3.10;;
14736;SDS011;7459;53.590;10.062;2022-09-13T00:08:03;4.60;;;3.28;;
14736;SDS011;7459;53.590;10.062;2022-09-13T00:10:30;5.25;;;3.00;;
14736;SDS011;7459;53.590;10.062;2022-09-13T00:12:59;6.88;;;2.95;;
14736;SDS011;7459;53.590;10.062;2022-09-13T00:15:25;5.20;;;2.93;;
14736;SDS011;7459;53.590;10.062;2022-09-13T00:17:51;5.72;;;2.70;;
14736;SDS011;7459;53.590;10.062;2022-09-13T00:20:17;6.07;;;3.17;;
14736;SDS011;7459;53.590;10.062;2022-09-13T00:22:43;6.03;;;3.07;;
14736;SDS011;7459;53.590;10.062;2022-09-13T00:25:08;5.90;;;3.83;;
14736;SDS011;7459;53.590;10.062;2022-09-13T00:27:35;6.13;;;2.90;;
14736;SDS011;7459;53.590;10.062;2022-09-13T00:30:02;6.07;;;3.30;;
14736;SDS011;7459;53.590;10.062;2022-09-13T00:32:29;7.50;;;3.00;;
14736;SDS011;7459;53.590;10.062;2022-09-13T00:34:55;6.15;;;3.42;;
14736;SDS011;7459;53.590;10.062;2022-09-13T00:37:22;6.57;;;3.27;;
14736;SDS011;7459;53.590;10.062;2022-09-13T00:39:47;5.25;;;3.15;;
14736;SDS011;7459;53.590;10.062;2022-09-13T00:42:13;7.87;;;3.43;;
14736;SDS011;7459;53.590;10.062;2022-09-13T00:44:52;6.35;;;3.28;;
14736;SDS011;7459;53.590;10.062;2022-09-13T00:47:32;5.90;;;3.85;;
14736;SDS011;7459;53.590;10.062;2022-09-13T00:50:06;5.90;;;3.15;;
14736;SDS011;7459;53.590;10.062;2022-09-13T00:53:00;6.28;;;3.67;;
14736;SDS011;7459;53.590;10.062;2022-09-13T00:55:30;5.90;;;4.00;;
14736;SDS011;7459;53.590;10.062;2022-09-13T00:58:12;8.13;;;4.10;;
14736;SDS011;7459;53.590;10.062;2022-09-13T01:00:43;7.47;;;3.83;;
14736;SDS011;7459;53.590;10.062;2022-09-13T01:03:10;7.43;;;3.33;;
14736;SDS011;7459;53.590;10.062;2022-09-13T01:05:40;4.95;;;3.20;;
14736;SDS011;7459;53.590;10.062;2022-09-13T01:08:15;6.87;;;4.03;;
14736;SDS011;7459;53.590;10.062;2022-09-13T01:10:46;6.18;;;3.88;;
14736;SDS011;7459;53.590;10.062;2022-09-13T01:13:30;7.57;;;3.95;;
14736;SDS011;7459;53.590;10.062;2022-09-13T01:15:58;6.45;;;3.95;;
14736;SDS011;7459;53.590;10.062;2022-09-13T01:18:24;7.68;;;3.95;;
14736;SDS011;7459;53.590;10.062;2022-09-13T01:38:19;7.50;;;4.30;;
14736;SDS011;7459;53.590;10.062;2022-09-13T01:55:17;6.45;;;3.45;;
14736;SDS011;7459;53.590;10.062;2022-09-13T02:00:55;9.25;;;4.28;;
14736;SDS011;7459;53.590;10.062;2022-09-13T02:03:50;8.20;;;4.23;;
14736;SDS011;7459;53.590;10.062;2022-09-13T02:06:25;7.18;;;3.72;;
14736;SDS011;7459;53.590;10.062;2022-09-13T02:08:57;7.15;;;4.10;;
14736;SDS011;7459;53.590;10.062;2022-09-13T02:11:27;7.13;;;3.80;;
14736;SDS011;7459;53.590;10.062;2022-09-13T02:14:06;7.97;;;4.18;;
14736;SDS011;7459;53.590;10.062;2022-09-13T02:16:39;9.03;;;3.97;;
14736;SDS011;7459;53.590;10.062;2022-09-13T02:19:19;6.25;;;3.40;;
14736;SDS011;7459;53.590;10.062;2022-09-13T02:21:51;7.47;;;3.72;;
14736;SDS011;7459;53.590;10.062;2022-09-13T02:24:28;9.00;;;4.53;;
14736;SDS011;7459;53.590;10.062;2022-09-13T02:26:58;7.57;;;4.15;;
14736;SDS011;7459;53.590;10.062;2022-09-13T02:29:32;7.80;;;4.07;;
14736;SDS011;7459;53.590;10.062;2022-09-13T02:32:08;7.18;;;3.92;;
14736;SDS011;7459;53.590;10.062;2022-09-13T02:34:41;7.72;;;3.97;;
14736;SDS011;7459;53.590;10.062;2022-09-13T02:37:18;7.75;;;4.18;;
14736;SDS011;7459;53.590;10.062;2022-09-13T02:39:49;9.80;;;4.10;;
14736;SDS011;7459;53.590;10.062;2022-09-13T02:42:30;8.17;;;3.80;;
14736;SDS011;7459;53.590;10.062;2022-09-13T02:45:13;8.55;;;4.20;;
14736;SDS011;7459;53.590;10.062;2022-09-13T02:47:41;9.98;;;3.83;;
14736;SDS011;7459;53.590;10.062;2022-09-13T02:50:21;8.32;;;4.28;;
14736;SDS011;7459;53.590;10.062;2022-09-13T02:53:01;9.45;;;4.15;;
14736;SDS011;7459;53.590;10.062;2022-09-13T02:59:00;8.02;;;4.65;;
14736;SDS011;7459;53.590;10.062;2022-09-13T03:01:36;10.02;;;4.93;;
14736;SDS011;7459;53.590;10.062;2022-09-13T03:04:04;8.48;;;4.75;;
14736;SDS011;7459;53.590;10.062;2022-09-13T03:06:30;7.93;;;4.43;;
14736;SDS011;7459;53.590;10.062;2022-09-13T03:08:56;12.75;;;5.25;;
14736;SDS011;7459;53.590;10.062;2022-09-13T03:11:35;8.13;;;5.15;;
14736;SDS011;7459;53.590;10.062;2022-09-13T03:15:05;10.38;;;4.93;;
14736;SDS011;7459;53.590;10.062;2022-09-13T03:17:45;10.43;;;5.13;;
14736;SDS011;7459;53.590;10.062;2022-09-13T03:26:18;10.60;;;5.32;;
14736;SDS011;7459;53.590;10.062;2022-09-13T03:34:37;11.90;;;5.53;;
14736;SDS011;7459;53.590;10.062;2022-09-13T03:40:13;12.35;;;6.25;;
14736;SDS011;7459;53.590;10.062;2022-09-13T03:42:51;11.90;;;5.60;;
14736;SDS011;7459;53.590;10.062;2022-09-13T03:45:45;10.87;;;5.87;;
14736;SDS011;7459;53.590;10.062;2022-09-13T03:48:17;13.02;;;6.57;;
14736;SDS011;7459;53.590;10.062;2022-09-13T03:50:44;11.93;;;5.40;;
14736;SDS011;7459;53.590;10.062;2022-09-13T03:53:12;11.40;;;6.22;;
14736;SDS011;7459;53.590;10.062;2022-09-13T03:55:44;11.68;;;6.35;;
14736;SDS011;7459;53.590;10.062;2022-09-13T03:58:17;13.43;;;6.63;;
14736;SDS011;7459;53.590;10.062;2022-09-13T04:00:44;12.32;;;6.18;;
14736;SDS011;7459;53.590;10.062;2022-09-13T04:03:11;11.82;;;6.32;;
14736;SDS011;7459;53.590;10.062;2022-09-13T04:05:38;12.82;;;7.40;;
14736;SDS011;7459;53.590;10.062;2022-09-13T04:08:04;11.30;;;6.43;;
14736;SDS011;7459;53.590;10.062;2022-09-13T04:10:31;14.52;;;8.00;;
14736;SDS011;7459;53.590;10.062;2022-09-13T04:12:58;12.80;;;7.53;;
14736;SDS011;7459;53.590;10.062;2022-09-13T04:15:24;12.75;;;7.38;;
14736;SDS011;7459;53.590;10.062;2022-09-13T04:17:51;13.63;;;7.85;;
14736;SDS011;7459;53.590;10.062;2022-09-13T04:20:17;13.73;;;7.80;;
14736;SDS011;7459;53.590;10.062;2022-09-13T04:22:49;14.98;;;7.82;;
14736;SDS011;7459;53.590;10.062;2022-09-13T04:25:20;13.50;;;7.60;;
14736;SDS011;7459;53.590;10.062;2022-09-13T04:27:47;15.43;;;8.73;;
14736;SDS011;7459;53.590;10.062;2022-09-13T04:30:17;15.77;;;9.27;;
14736;SDS011;7459;53.590;10.062;2022-09-13T04:32:43;15.80;;;8.83;;
14736;SDS011;7459;53.590;10.062;2022-09-13T04:35:09;16.33;;;8.45;;
14736;SDS011;7459;53.590;10.062;2022-09-13T04:37:35;16.02;;;8.82;;
14736;SDS011;7459;53.590;10.062;2022-09-13T04:40:02;16.73;;;9.57;;
14736;SDS011;7459;53.590;10.062;2022-09-13T04:42:30;17.48;;;9.65;;
14736;SDS011;7459;53.590;10.062;2022-09-13T04:44:56;18.00;;;9.63;;
14736;SDS011;7459;53.590;10.062;2022-09-13T04:47:21;18.57;;;9.67;;
14736;SDS011;7459;53.590;10.062;2022-09-13T04:49:47;19.20;;;11.20;;
14736;SDS011;7459;53.590;10.062;2022-09-13T04:52:13;19.43;;;10.13;;
14736;SDS011;7459;53.590;10.062;2022-09-13T04:54:38;18.70;;;10.30;;
14736;SDS011;7459;53.590;10.062;2022-09-13T04:57:04;20.00;;;10.63;;
14736;SDS011;7459;53.590;10.062;2022-09-13T04:59:31;19.90;;;10.43;;
14736;SDS011;7459;53.590;10.062;2022-09-13T05:01:57;20.08;;;10.57;;
14736;SDS011;7459;53.590;10.062;2022-09-13T05:04:22;19.03;;;10.47;;
14736;SDS011;7459;53.590;10.062;2022-09-13T05:06:48;22.63;;;11.15;;
14736;SDS011;7459;53.590;10.062;2022-09-13T05:09:14;20.50;;;10.43;;
14736;SDS011;7459;53.590;10.062;2022-09-13T05:11:40;21.50;;;10.90;;
14736;SDS011;7459;53.590;10.062;2022-09-13T05:14:08;19.30;;;10.10;;
14736;SDS011;7459;53.590;10.062;2022-09-13T05:16:35;19.80;;;10.95;;
14736;SDS011;7459;53.590;10.062;2022-09-13T05:19:01;22.57;;;10.37;;
14736;SDS011;7459;53.590;10.062;2022-09-13T05:21:27;19.92;;;11.38;;
14736;SDS011;7459;53.590;10.062;2022-09-13T05:23:54;20.92;;;10.52;;
14736;SDS011;7459;53.590;10.062;2022-09-13T05:26:21;18.58;;;10.82;;
14736;SDS011;7459;53.590;10.062;2022-09-13T05:28:50;20.87;;;12.67;;
14736;SDS011;7459;53.590;10.062;2022-09-13T05:31:21;20.42;;;11.15;;
14736;SDS011;7459;53.590;10.062;2022-09-13T05:33:54;18.48;;;10.73;;
14736;SDS011;7459;53.590;10.062;2022-09-13T05:36:31;21.63;;;11.82;;
14736;SDS011;7459;53.590;10.062;2022-09-13T05:38:57;18.53;;;11.13;;
14736;SDS011;7459;53.590;10.062;2022-09-13T05:41:24;19.55;;;10.40;;
14736;SDS011;7459;53.590;10.062;2022-09-13T05:43:50;17.10;;;10.88;;
14736;SDS011;7459;53.590;10.062;2022-09-13T05:46:16;20.40;;;11.77;;
14736;SDS011;7459;53.590;10.062;2022-09-13T05:48:44;20.20;;;11.35;;
14736;SDS011;7459;53.590;10.062;2022-09-13T05:51:11;20.35;;;10.95;;
14736;SDS011;7459;53.590;10.062;2022-09-13T05:53:43;20.42;;;11.13;;
14736;SDS011;7459;53.590;10.062;2022-09-13T05:56:18;19.77;;;11.82;;
14736;SDS011;7459;53.590;10.062;2022-09-13T05:58:49;18.97;;;11.13;;
14736;SDS011;7459;53.590;10.062;2022-09-13T06:01:16;17.73;;;11.27;;
14736;SDS011;7459;53.590;10.062;2022-09-13T06:03:49;20.73;;;12.40;;
14736;SDS011;7459;53.590;10.062;2022-09-13T06:06:19;21.48;;;11.55;;
14736;SDS011;7459;53.590;10.062;2022-09-13T06:08:46;21.35;;;11.45;;
14736;SDS011;7459;53.590;10.062;2022-09-13T06:11:16;19.17;;;11.50;;
14736;SDS011;7459;53.590;10.062;2022-09-13T06:13:42;19.83;;;11.30;;
14736;SDS011;7459;53.590;10.062;2022-09-13T06:16:08;25.83;;;11.67;;
14736;SDS011;7459;53.590;10.062;2022-09-13T06:18:37;21.50;;;11.67;;
14736;SDS011;7459;53.590;10.062;2022-09-13T06:21:05;19.48;;;11.15;;
14736;SDS011;7459;53.590;10.062;2022-09-13T06:23:34;19.88;;;10.63;;
14736;SDS011;7459;53.590;10.062;2022-09-13T06:26:04;19.75;;;11.05;;
14736;SDS011;7459;53.590;10.062;2022-09-13T06:28:33;20.83;;;10.85;;
14736;SDS011;7459;53.590;10.062;2022-09-13T06:31:01;22.73;;;11.80;;
14736;SDS011;7459;53.590;10.062;2022-09-13T06:33:36;20.67;;;11.80;;
14736;SDS011;7459;53.590;10.062;2022-09-13T06:36:05;19.92;;;11.43;;
14736;SDS011;7459;53.590;10.062;2022-09-13T06:38:38;21.05;;;11.65;;
14736;SDS011;7459;53.590;10.062;2022-09-13T06:41:08;20.58;;;10.77;;
14736;SDS011;7459;53.590;10.062;2022-09-13T06:43:36;21.60;;;10.57;;
14736;SDS011;7459;53.590;10.062;2022-09-13T06:46:04;21.02;;;9.77;;
14736;SDS011;7459;53.590;10.062;2022-09-13T06:48:36;24.13;;;10.55;;
14736;SDS011;7459;53.590;10.062;2022-09-13T06:51:05;25.63;;;9.30;;
14736;SDS011;7459;53.590;10.062;2022-09-13T06:53:34;19.48;;;9.00;;
14736;SDS011;7459;53.590;10.062;2022-09-13T06:56:06;19.83;;;9.37;;
14736;SDS011;7459;53.590;10.062;2022-09-13T06:58:35;18.83;;;9.50;;
14736;SDS011;7459;53.590;10.062;2022-09-13T07:03:42;17.15;;;8.75;;
14736;SDS011;7459;53.590;10.062;2022-09-13T07:06:17;17.13;;;8.32;;
14736;SDS011;7459;53.590;10.062;2022-09-13T07:08:45;18.13;;;8.70;;
14736;SDS011;7459;53.590;10.062;2022-09-13T07:11:13;17.90;;;8.65;;
14736;SDS011;7459;53.590;10.062;2022-09-13T07:13:40;20.20;;;7.75;;
14736;SDS011;7459;53.590;10.062;2022-09-13T07:16:07;15.23;;;7.78;;
14736;SDS011;7459;53.590;10.062;2022-09-13T07:18:35;16.10;;;8.00;;
14736;SDS011;7459;53.590;10.062;2022-09-13T07:21:02;16.55;;;6.95;;
14736;SDS011;7459;53.590;10.062;2022-09-13T07:23:35;15.15;;;7.28;;
14736;SDS011;7459;53.590;10.062;2022-09-13T07:26:03;15.02;;;7.40;;
14736;SDS011;7459;53.590;10.062;2022-09-13T07:28:32;16.23;;;6.90;;
14736;SDS011;7459;53.590;10.062;2022-09-13T07:31:04;12.70;;;5.97;;
14736;SDS011;7459;53.590;10.062;2022-09-13T07:33:44;13.18;;;6.15;;
14736;SDS011;7459;53.590;10.062;2022-09-13T07:36:11;15.30;;;5.68;;
14736;SDS011;7459;53.590;10.062;2022-09-13T07:38:39;14.82;;;6.28;;
14736;SDS011;7459;53.590;10.062;2022-09-13T07:41:08;15.73;;;6.60;;
14736;SDS011;7459;53.590;10.062;2022-09-13T07:43:39;16.33;;;6.03;;
14736;SDS011;7459;53.590;10.062;2022-09-13T07:46:06;14.32;;;5.78;;
14736;SDS011;7459;53.590;10.062;2022-09-13T07:48:35;14.70;;;5.78;;
14736;SDS011;7459;53.590;10.062;2022-09-13T07:53:41;11.65;;;4.90;;
14736;SDS011;7459;53.590;10.062;2022-09-13T07:58:46;12.38;;;5.63;;
14736;SDS011;7459;53.590;10.062;2022-09-13T08:01:14;11.18;;;5.03;;
14736;SDS011;7459;53.590;10.062;2022-09-13T08:03:44;13.35;;;4.63;;
14736;SDS011;7459;53.590;10.062;2022-09-13T08:06:16;12.38;;;4.72;;
14736;SDS011;7459;53.590;10.062;2022-09-13T08:08:41;12.93;;;4.63;;
14736;SDS011;7459;53.590;10.062;2022-09-13T08:11:14;8.75;;;3.33;;
14736;SDS011;7459;53.590;10.062;2022-09-13T08:13:53;10.70;;;3.80;;
14736;SDS011;7459;53.590;10.062;2022-09-13T08:16:20;9.48;;;3.60;;
14736;SDS011;7459;53.590;10.062;2022-09-13T08:18:48;9.32;;;4.60;;
14736;SDS011;7459;53.590;10.062;2022-09-13T08:21:16;9.85;;;3.03;;
14736;SDS011;7459;53.590;10.062;2022-09-13T08:23:42;9.50;;;4.20;;
14736;SDS011;7459;53.590;10.062;2022-09-13T08:26:09;8.27;;;2.70;;
14736;SDS011;7459;53.590;10.062;2022-09-13T08:28:36;8.43;;;2.25;;
14736;SDS011;7459;53.590;10.062;2022-09-13T08:31:09;10.00;;;2.35;;
14736;SDS011;7459;53.590;10.062;2022-09-13T08:33:41;8.50;;;1.48;;
14736;SDS011;7459;53.590;10.062;2022-09-13T08:36:09;10.02;;;1.45;;
14736;SDS011;7459;53.590;10.062;2022-09-13T08:38:34;8.63;;;1.50;;
14736;SDS011;7459;53.590;10.062;2022-09-13T08:41:01;6.28;;;1.60;;
14736;SDS011;7459;53.590;10.062;2022-09-13T08:46:28;6.63;;;2.03;;
14736;SDS011;7459;53.590;10.062;2022-09-13T08:49:07;3.85;;;1.20;;
14736;SDS011;7459;53.590;10.062;2022-09-13T08:52:02;10.80;;;1.50;;
14736;SDS011;7459;53.590;10.062;2022-09-13T08:54:44;5.85;;;1.00;;
14736;SDS011;7459;53.590;10.062;2022-09-13T09:05:47;7.75;;;1.00;;
14736;SDS011;7459;53.590;10.062;2022-09-13T09:08:29;4.17;;;0.97;;
14736;SDS011;7459;53.590;10.062;2022-09-13T09:11:02;4.30;;;0.90;;
14736;SDS011;7459;53.590;10.062;2022-09-13T09:13:36;6.07;;;1.23;;
14736;SDS011;7459;53.590;10.062;2022-09-13T09:16:27;7.80;;;1.20;;
14736;SDS011;7459;53.590;10.062;2022-09-13T09:19:17;5.22;;;1.27;;
14736;SDS011;7459;53.590;10.062;2022-09-13T09:21:58;7.47;;;1.23;;
14736;SDS011;7459;53.590;10.062;2022-09-13T09:24:28;4.35;;;0.60;;
14736;SDS011;7459;53.590;10.062;2022-09-13T09:27:00;5.40;;;0.63;;
14736;SDS011;7459;53.590;10.062;2022-09-13T09:29:41;6.47;;;1.17;;
14736;SDS011;7459;53.590;10.062;2022-09-13T09:38:30;8.20;;;0.65;;
14736;SDS011;7459;53.590;10.062;2022-09-13T09:41:03;4.47;;;0.75;;
14736;SDS011;7459;53.590;10.062;2022-09-13T09:43:58;7.50;;;1.00;;
14736;SDS011;7459;53.590;10.062;2022-09-13T09:46:43;4.03;;;0.70;;
14736;SDS011;7459;53.590;10.062;2022-09-13T09:52:28;7.38;;;0.95;;
14736;SDS011;7459;53.590;10.062;2022-09-13T09:55:01;4.13;;;0.50;;
14736;SDS011;7459;53.590;10.062;2022-09-13T09:57:49;6.60;;;1.25;;
14736;SDS011;7459;53.590;10.062;2022-09-13T10:00:18;4.63;;;0.65;;
14736;SDS011;7459;53.590;10.062;2022-09-13T10:02:47;5.07;;;1.17;;
14736;SDS011;7459;53.590;10.062;2022-09-13T10:05:17;7.30;;;0.30;;
14736;SDS011;7459;53.590;10.062;2022-09-13T10:07:50;5.28;;;0.70;;
14736;SDS011;7459;53.590;10.062;2022-09-13T10:10:24;5.57;;;0.85;;
14736;SDS011;7459;53.590;10.062;2022-09-13T10:13:07;6.63;;;1.25;;
14736;SDS011;7459;53.590;10.062;2022-09-13T10:15:57;6.07;;;1.07;;
14736;SDS011;7459;53.590;10.062;2022-09-13T10:18:27;7.18;;;1.13;;
14736;SDS011;7459;53.590;10.062;2022-09-13T10:23:29;6.45;;;0.93;;
14736;SDS011;7459;53.590;10.062;2022-09-13T10:26:13;9.13;;;0.75;;
14736;SDS011;7459;53.590;10.062;2022-09-13T10:28:54;6.43;;;0.63;;
14736;SDS011;7459;53.590;10.062;2022-09-13T10:31:31;3.72;;;0.43;;
14736;SDS011;7459;53.590;10.062;2022-09-13T10:34:15;6.90;;;1.13;;
14736;SDS011;7459;53.590;10.062;2022-09-13T10:36:55;5.15;;;0.77;;
14736;SDS011;7459;53.590;10.062;2022-09-13T10:42:32;6.63;;;0.87;;
14736;SDS011;7459;53.590;10.062;2022-09-13T10:45:02;7.40;;;0.82;;
14736;SDS011;7459;53.590;10.062;2022-09-13T10:47:32;6.38;;;0.95;;
14736;SDS011;7459;53.590;10.062;2022-09-13T10:52:54;4.10;;;0.68;;
14736;SDS011;7459;53.590;10.062;2022-09-13T10:55:24;4.97;;;0.93;;
14736;SDS011;7459;53.590;10.062;2022-09-13T10:57:51;5.35;;;0.77;;
14736;SDS011;7459;53.590;10.062;2022-09-13T11:00:23;5.68;;;1.33;;
14736;SDS011;7459;53.590;10.062;2022-09-13T11:03:34;3.55;;;1.08;;
14736;SDS011;7459;53.590;10.062;2022-09-13T11:06:41;7.93;;;0.68;;
14736;SDS011;7459;53.590;10.062;2022-09-13T11:09:22;4.73;;;1.00;;
14736;SDS011;7459;53.590;10.062;2022-09-13T11:17:58;5.45;;;0.70;;
14736;SDS011;7459;53.590;10.062;2022-09-13T11:20:46;5.43;;;0.80;;
14736;SDS011;7459;53.590;10.062;2022-09-13T11:26:44;3.17;;;0.82;;
14736;SDS011;7459;53.590;10.062;2022-09-13T11:37:35;6.57;;;1.67;;
14736;SDS011;7459;53.590;10.062;2022-09-13T11:43:13;4.72;;;0.52;;
14736;SDS011;7459;53.590;10.062;2022-09-13T11:49:17;2.50;;;1.05;;
14736;SDS011;7459;53.590;10.062;2022-09-13T11:57:48;5.57;;;0.93;;
14736;SDS011;7459;53.590;10.062;2022-09-13T12:03:02;6.18;;;0.70;;
14736;SDS011;7459;53.590;10.062;2022-09-13T12:05:47;3.87;;;1.03;;
14736;SDS011;7459;53.590;10.062;2022-09-13T12:08:37;7.72;;;1.15;;
14736;SDS011;7459;53.590;10.062;2022-09-13T12:13:50;7.93;;;0.70;;
14736;SDS011;7459;53.590;10.062;2022-09-13T12:16:27;7.82;;;0.80;;
14736;SDS011;7459;53.590;10.062;2022-09-13T12:19:16;5.23;;;1.13;;
14736;SDS011;7459;53.590;10.062;2022-09-13T12:21:51;7.88;;;1.00;;
14736;SDS011;7459;53.590;10.062;2022-09-13T12:24:31;5.15;;;1.05;;
14736;SDS011;7459;53.590;10.062;2022-09-13T12:30:07;7.13;;;0.75;;
14736;SDS011;7459;53.590;10.062;2022-09-13T12:32:46;8.87;;;1.07;;
14736;SDS011;7459;53.590;10.062;2022-09-13T12:35:21;8.05;;;0.82;;
14736;SDS011;7459;53.590;10.062;2022-09-13T12:41:14;6.70;;;1.38;;
14736;SDS011;7459;53.590;10.062;2022-09-13T13:01:28;7.70;;;0.53;;
14736;SDS011;7459;53.590;10.062;2022-09-13T13:03:57;5.20;;;0.40;;
14736;SDS011;7459;53.590;10.062;2022-09-13T13:09:05;6.10;;;0.47;;
14736;SDS011;7459;53.590;10.062;2022-09-13T13:11:47;7.15;;;0.98;;
14736;SDS011;7459;53.590;10.062;2022-09-13T13:14:27;4.90;;;0.93;;
14736;SDS011;7459;53.590;10.062;2022-09-13T13:23:20;8.45;;;0.98;;
14736;SDS011;7459;53.590;10.062;2022-09-13T13:31:07;6.35;;;0.93;;
14736;SDS011;7459;53.590;10.062;2022-09-13T13:33:47;6.72;;;0.75;;
14736;SDS011;7459;53.590;10.062;2022-09-13T13:36:20;8.95;;;1.10;;
14736;SDS011;7459;53.590;10.062;2022-09-13T13:38:48;7.28;;;0.93;;
14736;SDS011;7459;53.590;10.062;2022-09-13T13:46:40;6.32;;;0.73;;
14736;SDS011;7459;53.590;10.062;2022-09-13T14:00:05;7.00;;;1.02;;
14736;SDS011;7459;53.590;10.062;2022-09-13T14:13:50;4.27;;;0.60;;
14736;SDS011;7459;53.590;10.062;2022-09-13T14:19:28;14.68;;;1.45;;
14736;SDS011;7459;53.590;10.062;2022-09-13T14:24:40;5.30;;;1.08;;
14736;SDS011;7459;53.590;10.062;2022-09-13T14:27:14;8.90;;;0.63;;
14736;SDS011;7459;53.590;10.062;2022-09-13T14:29:53;7.13;;;1.05;;
14736;SDS011;7459;53.590;10.062;2022-09-13T14:32:23;7.80;;;0.90;;
14736;SDS011;7459;53.590;10.062;2022-09-13T14:34:59;3.85;;;0.93;;
14736;SDS011;7459;53.590;10.062;2022-09-13T14:37:28;7.20;;;1.00;;
14736;SDS011;7459;53.590;10.062;2022-09-13T14:42:45;5.57;;;0.50;;
14736;SDS011;7459;53.590;10.062;2022-09-13T14:45:35;6.47;;;1.17;;
14736;SDS011;7459;53.590;10.062;2022-09-13T14:48:02;8.63;;;0.88;;
14736;SDS011;7459;53.590;10.062;2022-09-13T14:50:56;10.20;;;1.17;;
14736;SDS011;7459;53.590;10.062;2022-09-13T14:53:41;9.20;;;0.67;;
14736;SDS011;7459;53.590;10.062;2022-09-13T14:56:12;6.43;;;0.45;;
14736;SDS011;7459;53.590;10.062;2022-09-13T15:02:25;9.85;;;1.30;;
14736;SDS011;7459;53.590;10.062;2022-09-13T15:04:56;8.98;;;0.80;;
14736;SDS011;7459;53.590;10.062;2022-09-13T15:07:29;7.23;;;0.67;;
14736;SDS011;7459;53.590;10.062;2022-09-13T15:12:34;8.80;;;0.70;;
14736;SDS011;7459;53.590;10.062;2022-09-13T15:17:52;6.30;;;1.10;;
14736;SDS011;7459;53.590;10.062;2022-09-13T15:20:23;8.30;;;0.60;;
14736;SDS011;7459;53.590;10.062;2022-09-13T15:22:52;5.13;;;0.50;;
14736;SDS011;7459;53.590;10.062;2022-09-13T15:25:19;6.05;;;0.88;;
14736;SDS011;7459;53.590;10.062;2022-09-13T15:27:52;5.80;;;1.02;;
14736;SDS011;7459;53.590;10.062;2022-09-13T15:38:58;7.38;;;1.08;;
14736;SDS011;7459;53.590;10.062;2022-09-13T15:41:50;4.95;;;0.90;;
14736;SDS011;7459;53.590;10.062;2022-09-13T15:44:21;10.68;;;1.67;;
14736;SDS011;7459;53.590;10.062;2022-09-13T15:46:48;4.03;;;0.50;;
14736;SDS011;7459;53.590;10.062;2022-09-13T15:49:17;6.63;;;0.98;;
14736;SDS011;7459;53.590;10.062;2022-09-13T15:51:46;6.78;;;1.25;;
14736;SDS011;7459;53.590;10.062;2022-09-13T15:54:18;5.47;;;0.50;;
14736;SDS011;7459;53.590;10.062;2022-09-13T15:56:46;4.82;;;0.88;;
14736;SDS011;7459;53.590;10.062;2022-09-13T15:59:16;6.23;;;0.60;;
14736;SDS011;7459;53.590;10.062;2022-09-13T16:01:46;7.25;;;0.88;;
14736;SDS011;7459;53.590;10.062;2022-09-13T16:04:14;4.13;;;0.63;;
14736;SDS011;7459;53.590;10.062;2022-09-13T16:06:40;6.43;;;0.30;;
14736;SDS011;7459;53.590;10.062;2022-09-13T16:09:16;6.50;;;0.90;;
14736;SDS011;7459;53.590;10.062;2022-09-13T16:11:48;4.77;;;0.63;;
14736;SDS011;7459;53.590;10.062;2022-09-13T16:14:15;5.85;;;0.70;;
14736;SDS011;7459;53.590;10.062;2022-09-13T16:16:42;5.63;;;0.88;;
14736;SDS011;7459;53.590;10.062;2022-09-13T16:19:12;6.75;;;0.68;;
14736;SDS011;7459;53.590;10.062;2022-09-13T16:21:42;8.10;;;0.68;;
14736;SDS011;7459;53.590;10.062;2022-09-13T16:24:08;4.43;;;0.87;;
14736;SDS011;7459;53.590;10.062;2022-09-13T16:26:34;5.20;;;1.35;;
14736;SDS011;7459;53.590;10.062;2022-09-13T16:29:00;7.55;;;0.40;;
14736;SDS011;7459;53.590;10.062;2022-09-13T16:31:26;5.03;;;0.60;;
14736;SDS011;7459;53.590;10.062;2022-09-13T16:33:51;7.47;;;0.70;;
14736;SDS011;7459;53.590;10.062;2022-09-13T16:36:17;5.07;;;0.77;;
14736;SDS011;7459;53.590;10.062;2022-09-13T16:38:43;4.32;;;0.80;;
14736;SDS011;7459;53.590;10.062;2022-09-13T16:41:08;3.95;;;0.50;;
14736;SDS011;7459;53.590;10.062;2022-09-13T16:43:35;4.30;;;0.63;;
14736;SDS011;7459;53.590;10.062;2022-09-13T16:46:05;5.75;;;0.82;;
14736;SDS011;7459;53.590;10.062;2022-09-13T16:48:32;5.25;;;0.82;;
14736;SDS011;7459;53.590;10.062;2022-09-13T16:51:02;4.05;;;1.20;;
14736;SDS011;7459;53.590;10.062;2022-09-13T16:53:34;6.73;;;0.80;;
14736;SDS011;7459;53.590;10.062;2022-09-13T16:56:09;8.13;;;0.88;;
14736;SDS011;7459;53.590;10.062;2022-09-13T16:58:40;6.40;;;1.05;;
14736;SDS011;7459;53.590;10.062;2022-09-13T17:01:11;7.07;;;1.15;;
14736;SDS011;7459;53.590;10.062;2022-09-13T17:03:38;7.75;;;0.95;;
14736;SDS011;7459;53.590;10.062;2022-09-13T17:06:05;3.20;;;0.47;;
14736;SDS011;7459;53.590;10.062;2022-09-13T17:08:34;5.68;;;0.75;;
14736;SDS011;7459;53.590;10.062;2022-09-13T17:11:06;4.60;;;0.80;;
14736;SDS011;7459;53.590;10.062;2022-09-13T17:13:36;4.18;;;0.57;;
14736;SDS011;7459;53.590;10.062;2022-09-13T17:16:04;6.55;;;0.75;;
14736;SDS011;7459;53.590;10.062;2022-09-13T17:18:32;5.03;;;0.67;;
14736;SDS011;7459;53.590;10.062;2022-09-13T17:20:58;5.78;;;0.70;;
14736;SDS011;7459;53.590;10.062;2022-09-13T17:23:25;5.50;;;0.30;;
14736;SDS011;7459;53.590;10.062;2022-09-13T17:25:51;3.40;;;0.38;;
14736;SDS011;7459;53.590;10.062;2022-09-13T17:28:17;5.30;;;0.63;;
14736;SDS011;7459;53.590;10.062;2022-09-13T17:30:43;6.03;;;0.40;;
14736;SDS011;7459;53.590;10.062;2022-09-13T17:33:10;3.58;;;0.77;;
14736;SDS011;7459;53.590;10.062;2022-09-13T17:35:37;4.53;;;0.40;;
14736;SDS011;7459;53.590;10.062;2022-09-13T17:38:04;6.80;;;0.95;;
14736;SDS011;7459;53.590;10.062;2022-09-13T17:40:30;5.70;;;0.63;;
14736;SDS011;7459;53.590;10.062;2022-09-13T17:42:57;7.85;;;0.82;;
14736;SDS011;7459;53.590;10.062;2022-09-13T17:45:23;6.25;;;0.63;;
14736;SDS011;7459;53.590;10.062;2022-09-13T17:47:53;8.73;;;0.57;;
14736;SDS011;7459;53.590;10.062;2022-09-13T17:50:21;9.10;;;0.97;;
14736;SDS011;7459;53.590;10.062;2022-09-13T17:52:46;7.03;;;0.68;;
14736;SDS011;7459;53.590;10.062;2022-09-13T17:55:12;7.70;;;0.55;;
14736;SDS011;7459;53.590;10.062;2022-09-13T17:57:39;5.20;;;0.80;;
14736;SDS011;7459;53.590;10.062;2022-09-13T18:00:06;4.43;;;0.67;;
14736;SDS011;7459;53.590;10.062;2022-09-13T18:02:37;8.27;;;0.60;;
14736;SDS011;7459;53.590;10.062;2022-09-13T18:05:02;9.23;;;0.60;;
14736;SDS011;7459;53.590;10.062;2022-09-13T18:07:29;6.32;;;0.45;;
14736;SDS011;7459;53.590;10.062;2022-09-13T18:09:54;5.00;;;1.77;;
14736;SDS011;7459;53.590;10.062;2022-09-13T18:12:20;9.15;;;1.50;;
14736;SDS011;7459;53.590;10.062;2022-09-13T18:14:46;6.07;;;1.37;;
14736;SDS011;7459;53.590;10.062;2022-09-13T18:17:11;4.82;;;0.75;;
14736;SDS011;7459;53.590;10.062;2022-09-13T18:19:38;8.47;;;2.00;;
14736;SDS011;7459;53.590;10.062;2022-09-13T18:22:05;9.65;;;1.17;;
14736;SDS011;7459;53.590;10.062;2022-09-13T18:24:32;6.70;;;0.80;;
14736;SDS011;7459;53.590;10.062;2022-09-13T18:26:58;6.47;;;0.97;;
14736;SDS011;7459;53.590;10.062;2022-09-13T18:29:25;8.32;;;1.00;;
14736;SDS011;7459;53.590;10.062;2022-09-13T18:31:52;8.45;;;0.95;;
14736;SDS011;7459;53.590;10.062;2022-09-13T18:34:19;5.70;;;1.02;;
14736;SDS011;7459;53.590;10.062;2022-09-13T18:36:45;5.35;;;0.80;;
14736;SDS011;7459;53.590;10.062;2022-09-13T18:39:13;5.43;;;0.83;;
14736;SDS011;7459;53.590;10.062;2022-09-13T18:41:41;3.97;;;1.08;;
14736;SDS011;7459;53.590;10.062;2022-09-13T18:44:09;7.35;;;0.63;;